Donnacona, Canada
Current Conditions -  °F | °C
As of 6:00 AM on Tuesday 21 Oct 2014 (Local Time) from CYQB Reporting Station
Broken Clouds Broken Clouds  
Wind Chill: 30°   Ceiling: 9500
Heat Index: 34°   Visibility: 15mi
Dew Point: 30°   Wind: 5mph
Humidity: 87%   Direction: 10°N
Pressure: 30.03"   Gusts: NA
Location:  46.67°N, 71.73°W
Report Text: CYQB 211000Z 01004KT 15SM FEW070 BKN095 01/M01 A3003 RMK AC1AC5 SLP173
Loading
Personal Weather Stations






























Interactive Weather Map
Tropical Storm Tracking
New forecast layout! Learn more

10-Day Weather Forecast

Advertisements
Track Severe Weather on mobile